createdAt,value
2018-08-11T00:00:55.548Z,2.47
2018-08-11T00:03:30.739Z,2.20
2018-08-11T00:06:05.665Z,2.63
2018-08-11T00:08:40.490Z,2.47
2018-08-11T00:11:15.700Z,2.90
2018-08-11T00:13:51.346Z,2.40
2018-08-11T00:16:26.318Z,2.90
2018-08-11T00:19:01.069Z,2.67
2018-08-11T00:21:36.187Z,2.40
2018-08-11T00:24:11.725Z,2.50
2018-08-11T00:26:46.929Z,2.23
2018-08-11T00:29:21.960Z,2.60
2018-08-11T00:31:57.041Z,2.53
2018-08-11T00:34:32.558Z,2.47
2018-08-11T00:37:07.538Z,2.50
2018-08-11T00:39:42.652Z,2.70
2018-08-11T00:42:17.583Z,2.77
2018-08-11T00:44:53.229Z,2.60
2018-08-11T00:47:28.522Z,3.07
2018-08-11T00:50:03.710Z,3.30
2018-08-11T00:52:38.745Z,3.50
2018-08-11T00:55:14.528Z,3.67
2018-08-11T00:57:49.784Z,4.13
2018-08-11T01:00:24.804Z,4.40
2018-08-11T01:02:59.868Z,4.70
2018-08-11T01:05:35.717Z,4.97
2018-08-11T01:08:10.729Z,5.47
2018-08-11T01:10:46.140Z,7.03
2018-08-11T01:13:22.120Z,4.30
2018-08-11T01:15:57.242Z,3.30
2018-08-11T01:18:32.557Z,3.23
2018-08-11T01:21:07.913Z,3.90
2018-08-11T01:23:43.430Z,3.20
2018-08-11T01:26:18.513Z,3.17
2018-08-11T01:28:54.267Z,2.53
2018-08-11T01:31:29.236Z,2.73
2018-08-11T01:34:04.315Z,3.80
2018-08-11T01:36:39.220Z,3.23
2018-08-11T01:39:14.697Z,3.53
2018-08-11T01:41:49.482Z,4.00
2018-08-11T01:44:29.597Z,4.60
2018-08-11T01:47:05.547Z,4.80
2018-08-11T01:49:40.635Z,4.47
2018-08-11T01:52:10.289Z,5.63
2018-08-11T01:54:45.075Z,4.60
2018-08-11T01:57:20.435Z,4.00
2018-08-11T01:59:55.183Z,4.13
2018-08-11T02:02:30.427Z,3.70
2018-08-11T02:05:05.570Z,3.60
2018-08-11T02:07:43.618Z,3.83
2018-08-11T02:10:20.373Z,3.50
2018-08-11T02:12:55.641Z,4.00
2018-08-11T02:15:30.502Z,3.80
2018-08-11T02:18:06.001Z,3.50
2018-08-11T02:20:41.691Z,3.67
2018-08-11T02:23:17.094Z,3.83
2018-08-11T02:25:52.581Z,3.40
2018-08-11T02:28:27.546Z,3.60
2018-08-11T02:31:02.448Z,3.23
2018-08-11T02:33:37.348Z,3.50
2018-08-11T02:36:12.431Z,3.17
2018-08-11T02:38:47.286Z,3.23
2018-08-11T02:41:22.667Z,3.40
2018-08-11T02:43:57.522Z,3.77
2018-08-11T02:46:32.673Z,3.30
2018-08-11T02:49:08.714Z,3.83
2018-08-11T02:51:43.657Z,4.00
2018-08-11T02:54:18.883Z,3.43
2018-08-11T02:56:53.749Z,3.13
2018-08-11T02:59:28.693Z,3.20
2018-08-11T03:02:03.355Z,3.40
2018-08-11T03:04:38.086Z,3.77
2018-08-11T03:07:13.257Z,3.53
2018-08-11T03:09:49.083Z,3.77
2018-08-11T03:12:23.973Z,3.33
2018-08-11T03:14:59.485Z,3.50
2018-08-11T03:17:34.706Z,3.20
2018-08-11T03:20:12.206Z,3.33
2018-08-11T03:22:47.532Z,3.70
2018-08-11T03:25:22.297Z,3.60
2018-08-11T03:27:57.265Z,3.57
2018-08-11T03:30:32.465Z,3.20
2018-08-11T03:33:07.661Z,3.80
2018-08-11T03:35:42.316Z,3.57
2018-08-11T03:38:17.169Z,3.60
2018-08-11T03:40:52.101Z,3.50
2018-08-11T03:43:24.564Z,3.57
2018-08-11T03:45:59.277Z,3.40
2018-08-11T03:48:34.220Z,3.40
2018-08-11T03:51:15.476Z,3.60
2018-08-11T03:53:50.711Z,3.47
2018-08-11T03:56:25.390Z,3.87
2018-08-11T03:59:00.356Z,3.87
2018-08-11T04:01:36.247Z,3.97
2018-08-11T04:04:11.419Z,3.60
2018-08-11T04:06:46.840Z,3.90
2018-08-11T04:09:21.917Z,3.70
2018-08-11T04:11:56.802Z,3.80
2018-08-11T04:14:32.623Z,4.00
2018-08-11T04:17:07.711Z,3.83
2018-08-11T04:19:42.721Z,3.40
2018-08-11T04:22:17.436Z,4.10
2018-08-11T04:24:52.804Z,3.97
2018-08-11T04:27:27.919Z,4.10
2018-08-11T04:30:03.777Z,4.03
2018-08-11T04:32:39.195Z,4.27
2018-08-11T04:35:14.093Z,4.60
2018-08-11T04:37:49.169Z,4.17
2018-08-11T04:40:24.332Z,4.43
2018-08-11T04:42:59.295Z,5.00
2018-08-11T04:45:34.267Z,5.50
2018-08-11T04:48:09.121Z,5.20
2018-08-11T04:50:44.281Z,5.23
2018-08-11T04:53:19.417Z,4.57
2018-08-11T04:55:54.323Z,5.00
2018-08-11T04:58:29.314Z,4.43
2018-08-11T05:01:05.034Z,5.00
2018-08-11T05:03:39.965Z,5.40
2018-08-11T05:06:14.806Z,5.30
2018-08-11T05:08:49.840Z,5.60
2018-08-11T05:11:24.726Z,5.57
2018-08-11T05:13:59.546Z,5.53
2018-08-11T05:16:35.514Z,5.13
2018-08-11T05:19:05.091Z,6.13
2018-08-11T05:21:40.297Z,5.70
2018-08-11T05:24:15.639Z,5.90
2018-08-11T05:26:50.561Z,6.17
2018-08-11T05:29:25.632Z,5.47
2018-08-11T05:32:00.983Z,5.50
2018-08-11T05:34:35.995Z,5.73
2018-08-11T05:37:11.112Z,6.00
2018-08-11T05:39:46.106Z,5.83
2018-08-11T05:42:21.112Z,6.40
2018-08-11T05:44:56.315Z,6.20
2018-08-11T05:47:31.501Z,6.30
2018-08-11T05:50:06.380Z,6.07
2018-08-11T05:52:41.526Z,7.07
2018-08-11T05:55:16.584Z,7.67
2018-08-11T05:57:51.866Z,7.40
2018-08-11T06:00:26.763Z,8.10
2018-08-11T06:03:01.737Z,8.13
2018-08-11T06:05:37.288Z,8.00
2018-08-11T06:08:12.107Z,7.80
2018-08-11T06:10:47.044Z,9.60
2018-08-11T06:13:22.295Z,8.60
2018-08-11T06:15:57.729Z,9.37
2018-08-11T06:18:33.157Z,8.70
2018-08-11T06:21:08.318Z,9.03
2018-08-11T06:23:44.217Z,9.83
2018-08-11T06:26:19.304Z,9.57
2018-08-11T06:28:54.443Z,9.20
2018-08-11T06:31:29.643Z,8.40
2018-08-11T06:34:04.644Z,9.10
2018-08-11T06:36:39.644Z,8.87
2018-08-11T06:39:15.223Z,9.07
2018-08-11T06:41:50.128Z,8.43
2018-08-11T06:44:25.879Z,8.50
2018-08-11T06:47:00.968Z,8.67
2018-08-11T06:49:37.061Z,9.30
2018-08-11T06:52:12.048Z,7.73
2018-08-11T06:54:46.980Z,7.93
2018-08-11T06:57:22.121Z,7.70
2018-08-11T06:59:57.292Z,8.17
2018-08-11T07:02:32.445Z,8.67
2018-08-11T07:05:07.405Z,8.23
2018-08-11T07:07:42.430Z,7.57
2018-08-11T07:10:17.441Z,8.27
2018-08-11T07:12:52.328Z,7.30
2018-08-11T07:15:27.496Z,6.57
2018-08-11T07:18:02.571Z,8.17
2018-08-11T07:20:37.461Z,7.03
2018-08-11T07:23:12.795Z,7.33
2018-08-11T07:25:48.065Z,7.23
2018-08-11T07:28:23.046Z,7.33
2018-08-11T07:30:58.211Z,6.60
2018-08-11T07:33:33.794Z,7.10
2018-08-11T07:36:08.855Z,7.03
2018-08-11T07:38:44.464Z,7.10
2018-08-11T07:41:19.473Z,7.43
2018-08-11T07:43:54.595Z,6.70
2018-08-11T07:46:29.561Z,7.00
2018-08-11T07:49:04.905Z,7.17
2018-08-11T07:51:39.807Z,6.50
2018-08-11T07:54:14.545Z,6.40
2018-08-11T07:56:49.741Z,6.37
2018-08-11T07:59:25.089Z,5.80
2018-08-11T08:02:01.587Z,5.80
2018-08-11T08:04:37.052Z,5.33
2018-08-11T08:07:12.327Z,5.20
2018-08-11T08:09:47.438Z,5.63
2018-08-11T08:12:22.882Z,5.53
2018-08-11T08:14:58.044Z,5.13
2018-08-11T08:17:33.597Z,5.20
2018-08-11T08:20:08.812Z,4.13
2018-08-11T08:22:43.698Z,3.87
2018-08-11T08:25:18.916Z,4.47
2018-08-11T08:27:53.898Z,4.63
2018-08-11T08:30:28.995Z,4.40
2018-08-11T08:33:04.069Z,4.30
2018-08-11T08:35:39.183Z,5.10
2018-08-11T08:38:14.156Z,4.70
2018-08-11T08:40:50.153Z,4.43
2018-08-11T08:43:25.142Z,3.90
2018-08-11T08:46:00.176Z,4.30
2018-08-11T08:48:35.313Z,3.60
2018-08-11T08:51:10.248Z,3.47
2018-08-11T08:53:45.880Z,3.37
2018-08-11T08:56:20.715Z,2.90
2018-08-11T08:58:55.837Z,3.43
2018-08-11T09:01:31.808Z,3.33
2018-08-11T09:04:06.738Z,3.00
2018-08-11T09:06:41.710Z,3.97
2018-08-11T09:09:16.715Z,3.40
2018-08-11T09:11:52.205Z,3.53
2018-08-11T09:14:27.386Z,3.17
2018-08-11T09:17:03.193Z,2.70
2018-08-11T09:19:39.211Z,3.03
2018-08-11T09:22:14.325Z,3.13
2018-08-11T09:24:49.214Z,3.47
2018-08-11T09:27:30.878Z,2.93
2018-08-11T09:30:07.043Z,3.33
2018-08-11T09:32:41.958Z,3.00
2018-08-11T09:35:17.483Z,2.90
2018-08-11T09:37:52.523Z,2.90
2018-08-11T09:40:28.565Z,3.10
2018-08-11T09:43:04.231Z,3.17
2018-08-11T09:45:39.424Z,2.90
2018-08-11T09:48:14.425Z,3.07
2018-08-11T09:50:49.955Z,3.30
2018-08-11T09:53:25.098Z,2.90
2018-08-11T09:56:00.276Z,3.20
2018-08-11T09:58:35.277Z,3.10
2018-08-11T10:01:15.824Z,3.17
2018-08-11T10:03:50.742Z,2.70
2018-08-11T10:06:25.772Z,3.27
2018-08-11T10:09:00.902Z,2.93
2018-08-11T10:11:36.142Z,2.73
2018-08-11T10:14:11.228Z,2.90
2018-08-11T10:16:46.556Z,2.87
2018-08-11T10:19:21.567Z,3.13
2018-08-11T10:21:57.031Z,3.47
2018-08-11T10:24:31.948Z,2.90
2018-08-11T10:27:07.202Z,3.00
2018-08-11T10:29:44.446Z,2.90
2018-08-11T10:32:19.407Z,3.10
2018-08-11T10:34:54.346Z,2.97
2018-08-11T10:37:29.406Z,3.40
2018-08-11T10:40:04.984Z,3.00
2018-08-11T10:42:40.047Z,3.03
2018-08-11T10:45:15.018Z,3.07
2018-08-11T10:47:50.129Z,3.50
2018-08-11T10:50:24.957Z,3.17
2018-08-11T10:53:00.207Z,3.03
2018-08-11T10:55:35.077Z,2.80
2018-08-11T10:58:10.237Z,3.00
2018-08-11T11:00:45.569Z,3.00
2018-08-11T11:03:20.953Z,2.60
2018-08-11T11:05:56.185Z,3.07
2018-08-11T11:08:31.421Z,2.40
2018-08-11T11:11:06.686Z,3.37
2018-08-11T11:13:42.072Z,3.00
2018-08-11T11:16:17.348Z,2.87
2018-08-11T11:18:52.577Z,2.70
2018-08-11T11:21:27.410Z,2.97
2018-08-11T11:24:02.161Z,2.40
2018-08-11T11:26:37.543Z,2.60
2018-08-11T11:29:13.156Z,2.70
2018-08-11T11:31:47.836Z,2.33
2018-08-11T11:34:22.881Z,2.00
2018-08-11T11:36:58.019Z,2.27
2018-08-11T11:39:32.915Z,2.00
2018-08-11T11:42:08.083Z,2.50
2018-08-11T11:44:43.546Z,2.70
2018-08-11T11:47:18.788Z,2.30
2018-08-11T11:49:53.964Z,2.60
2018-08-11T11:52:29.844Z,2.37
2018-08-11T11:55:05.097Z,2.43
2018-08-11T11:57:40.314Z,1.93
2018-08-11T12:00:15.651Z,2.00
2018-08-11T12:02:51.330Z,2.17
2018-08-11T12:05:26.233Z,2.17
2018-08-11T12:08:01.514Z,2.23
2018-08-11T12:10:36.303Z,2.30
2018-08-11T12:13:11.554Z,1.83
2018-08-11T12:15:46.589Z,1.80
2018-08-11T12:18:22.519Z,2.30
2018-08-11T12:20:57.330Z,2.00
2018-08-11T12:23:32.310Z,2.10
2018-08-11T12:26:07.477Z,2.03
2018-08-11T12:28:42.649Z,1.83
2018-08-11T12:31:17.810Z,2.00
2018-08-11T12:33:53.190Z,2.00
2018-08-11T12:36:28.086Z,2.33
2018-08-11T12:39:03.483Z,1.93
2018-08-11T12:41:39.355Z,1.80
2018-08-11T12:44:14.527Z,2.37
2018-08-11T12:46:49.572Z,2.17
2018-08-11T12:49:25.046Z,2.10
2018-08-11T12:52:00.281Z,2.43
2018-08-11T12:54:35.323Z,2.50
2018-08-11T12:57:10.668Z,2.23
2018-08-11T12:59:46.011Z,2.27
2018-08-11T13:02:20.746Z,2.87
2018-08-11T13:04:56.365Z,2.40
2018-08-11T13:07:31.515Z,2.47
2018-08-11T13:10:06.963Z,2.00
2018-08-11T13:12:41.922Z,2.50
2018-08-11T13:15:16.978Z,2.53
2018-08-11T13:17:51.780Z,2.07
2018-08-11T13:20:27.211Z,3.00
2018-08-11T13:23:02.827Z,2.43
2018-08-11T13:25:38.202Z,3.13
2018-08-11T13:28:13.510Z,3.50
2018-08-11T13:30:48.891Z,2.80
2018-08-11T13:33:24.175Z,2.90
2018-08-11T13:35:59.402Z,3.50
2018-08-11T13:38:34.637Z,3.07
2018-08-11T13:41:10.098Z,2.70
2018-08-11T13:43:45.872Z,2.73
2018-08-11T13:46:20.844Z,3.57
2018-08-11T13:48:55.869Z,2.83
2018-08-11T13:51:30.867Z,3.10
2018-08-11T13:54:06.558Z,3.33
2018-08-11T13:56:41.619Z,2.67
2018-08-11T13:59:16.857Z,2.90
2018-08-11T14:01:51.995Z,2.87
2018-08-11T14:04:26.971Z,2.50
2018-08-11T14:07:02.478Z,2.53
2018-08-11T14:09:37.536Z,2.47
2018-08-11T14:12:13.015Z,2.53
2018-08-11T14:14:47.890Z,2.30
2018-08-11T14:17:23.259Z,2.53
2018-08-11T14:19:58.105Z,2.43
2018-08-11T14:22:32.891Z,2.47
2018-08-11T14:25:08.616Z,2.60
2018-08-11T14:27:44.119Z,2.50
2018-08-11T14:30:19.631Z,2.40
2018-08-11T14:32:54.818Z,2.60
2018-08-11T14:35:30.159Z,1.93
2018-08-11T14:38:05.280Z,1.80
2018-08-11T14:40:41.136Z,1.80
2018-08-11T14:43:16.062Z,2.27
2018-08-11T14:45:51.005Z,2.50
2018-08-11T14:48:26.054Z,2.20
2018-08-11T14:51:01.095Z,2.10
2018-08-11T14:53:36.541Z,2.20
2018-08-11T14:56:11.531Z,2.10
2018-08-11T14:58:47.082Z,2.13
2018-08-11T15:01:22.253Z,2.27
2018-08-11T15:03:57.872Z,2.10
2018-08-11T15:06:32.830Z,2.00
2018-08-11T15:09:09.358Z,2.37
2018-08-11T15:11:44.435Z,2.17
2018-08-11T15:14:26.616Z,2.50
2018-08-11T15:17:01.500Z,2.40
2018-08-11T15:19:36.504Z,1.87
2018-08-11T15:22:11.620Z,2.67
2018-08-11T15:24:46.574Z,2.20
2018-08-11T15:27:22.420Z,2.40
2018-08-11T15:29:57.232Z,2.13
2018-08-11T15:32:32.621Z,2.10
2018-08-11T15:35:08.992Z,1.77
2018-08-11T15:37:44.392Z,2.33
2018-08-11T15:40:19.638Z,2.13
2018-08-11T15:42:54.381Z,2.20
2018-08-11T15:45:29.326Z,2.57
2018-08-11T15:48:04.439Z,2.40
2018-08-11T15:50:39.778Z,2.00
2018-08-11T15:53:14.983Z,2.07
2018-08-11T15:55:49.962Z,2.53
2018-08-11T15:58:25.101Z,1.90
2018-08-11T16:01:00.278Z,2.30
2018-08-11T16:03:35.404Z,2.20
2018-08-11T16:06:10.278Z,1.93
2018-08-11T16:08:45.428Z,1.97
2018-08-11T16:11:20.529Z,1.87
2018-08-11T16:13:55.246Z,2.07
2018-08-11T16:16:30.786Z,2.40
2018-08-11T16:19:06.313Z,2.20
2018-08-11T16:21:41.186Z,2.60
2018-08-11T16:24:17.114Z,3.20
2018-08-11T16:26:52.048Z,2.73
2018-08-11T16:29:27.082Z,2.60
2018-08-11T16:32:02.474Z,2.47
2018-08-11T16:34:37.206Z,2.77
2018-08-11T16:37:12.228Z,2.90
2018-08-11T16:39:47.241Z,2.90
2018-08-11T16:42:22.499Z,2.50
2018-08-11T16:44:57.551Z,2.27
2018-08-11T16:47:32.567Z,2.40
2018-08-11T16:50:07.884Z,2.33
2018-08-11T16:52:43.095Z,2.70
2018-08-11T16:55:18.354Z,2.40
2018-08-11T16:57:53.282Z,2.50
2018-08-11T17:00:28.478Z,2.67
2018-08-11T17:03:04.062Z,2.67
2018-08-11T17:05:39.469Z,2.50
2018-08-11T17:08:14.841Z,2.20
2018-08-11T17:10:49.906Z,2.80
2018-08-11T17:13:24.961Z,2.10
2018-08-11T17:16:00.230Z,2.63
2018-08-11T17:18:35.283Z,2.60
2018-08-11T17:21:10.579Z,2.50
2018-08-11T17:23:45.666Z,2.23
2018-08-11T17:26:21.626Z,2.30
2018-08-11T17:29:05.308Z,2.50
2018-08-11T17:31:40.495Z,2.90
2018-08-11T17:34:15.832Z,2.37
2018-08-11T17:36:51.046Z,2.60
2018-08-11T17:39:26.644Z,3.17
2018-08-11T17:42:01.995Z,3.10
2018-08-11T17:44:37.129Z,3.00
2018-08-11T17:47:12.079Z,3.00
2018-08-11T17:49:47.822Z,3.50
2018-08-11T17:52:23.044Z,3.63
2018-08-11T17:54:58.124Z,3.70
2018-08-11T17:57:33.536Z,3.80
2018-08-11T18:00:09.331Z,3.20
2018-08-11T18:02:44.346Z,3.50
2018-08-11T18:05:19.977Z,3.83
2018-08-11T18:07:55.412Z,3.53
2018-08-11T18:10:30.152Z,4.10
2018-08-11T18:13:05.191Z,3.83
2018-08-11T18:15:40.333Z,3.43
2018-08-11T18:18:15.938Z,3.37
2018-08-11T18:20:51.740Z,3.13
2018-08-11T18:23:27.680Z,3.27
2018-08-11T18:26:03.054Z,3.17
2018-08-11T18:28:38.533Z,3.10
2018-08-11T18:31:13.607Z,3.13
2018-08-11T18:33:48.819Z,3.20
2018-08-11T18:36:24.102Z,3.50
2018-08-11T18:38:59.316Z,3.80
2018-08-11T18:41:34.743Z,3.40
2018-08-11T18:44:10.244Z,3.50
2018-08-11T18:46:45.408Z,3.73
2018-08-11T18:49:21.810Z,3.67
2018-08-11T18:51:56.963Z,3.57
2018-08-11T18:54:32.348Z,3.43
2018-08-11T18:57:07.566Z,3.60
2018-08-11T18:59:42.682Z,3.57
2018-08-11T19:02:17.590Z,3.80
2018-08-11T19:04:52.645Z,3.13
2018-08-11T19:07:27.990Z,3.33
2018-08-11T19:10:03.130Z,3.63
2018-08-11T19:12:38.726Z,3.97
2018-08-11T19:15:15.149Z,4.10
2018-08-11T19:17:50.112Z,3.93
2018-08-11T19:20:26.556Z,3.80
2018-08-11T19:23:01.499Z,3.40
2018-08-11T19:25:36.641Z,3.80
2018-08-11T19:28:11.698Z,3.53
2018-08-11T19:30:47.178Z,3.67
2018-08-11T19:33:22.176Z,3.20
2018-08-11T19:35:57.582Z,4.17
2018-08-11T19:38:32.829Z,3.90
2018-08-11T19:41:08.193Z,4.10
2018-08-11T19:43:44.769Z,3.83
2018-08-11T19:46:20.170Z,4.10
2018-08-11T19:48:55.197Z,4.20
2018-08-11T19:51:30.525Z,4.00
2018-08-11T19:54:05.385Z,4.10
2018-08-11T19:56:41.657Z,4.30
2018-08-11T19:59:16.662Z,4.63
2018-08-11T20:01:52.520Z,4.50
2018-08-11T20:04:27.830Z,4.87
2018-08-11T20:07:03.273Z,4.40
2018-08-11T20:09:38.439Z,4.30
2018-08-11T20:12:14.123Z,4.40
2018-08-11T20:14:49.567Z,5.50
2018-08-11T20:17:24.667Z,4.83
2018-08-11T20:19:59.909Z,4.93
2018-08-11T20:22:35.099Z,4.77
2018-08-11T20:25:10.308Z,5.33
2018-08-11T20:27:45.686Z,5.60
2018-08-11T20:30:21.053Z,5.23
2018-08-11T20:32:56.113Z,5.33
2018-08-11T20:35:32.415Z,5.03
2018-08-11T20:38:08.099Z,4.90
2018-08-11T20:40:43.029Z,5.47
2018-08-11T20:43:18.342Z,5.23
2018-08-11T20:45:54.093Z,5.37
2018-08-11T20:48:35.940Z,5.30
2018-08-11T20:51:11.458Z,5.50
2018-08-11T20:53:46.960Z,6.17
2018-08-11T20:56:21.801Z,5.70
2018-08-11T20:58:57.511Z,5.60
2018-08-11T21:01:32.730Z,5.67
2018-08-11T21:04:08.007Z,5.80
2018-08-11T21:06:43.059Z,6.27
2018-08-11T21:09:18.469Z,6.50
2018-08-11T21:11:54.035Z,6.50
2018-08-11T21:14:29.138Z,6.37
2018-08-11T21:17:04.489Z,6.10
2018-08-11T21:19:39.770Z,6.50
2018-08-11T21:22:17.782Z,5.93
2018-08-11T21:24:53.482Z,5.97
2018-08-11T21:27:29.147Z,5.60
2018-08-11T21:30:05.214Z,6.37
2018-08-11T21:32:40.336Z,5.93
2018-08-11T21:35:15.450Z,6.87
2018-08-11T21:37:50.602Z,7.20
2018-08-11T21:40:25.890Z,7.10
2018-08-11T21:43:01.394Z,6.10
2018-08-11T21:45:36.633Z,6.80
2018-08-11T21:48:11.664Z,6.83
2018-08-11T21:50:47.293Z,6.70
2018-08-11T21:53:22.947Z,6.93
2018-08-11T21:55:58.348Z,7.00
2018-08-11T21:58:33.666Z,6.33
2018-08-11T22:01:13.424Z,6.23
2018-08-11T22:03:53.730Z,6.87
2018-08-11T22:06:29.004Z,7.30
2018-08-11T22:09:06.063Z,6.83
2018-08-11T22:11:41.263Z,7.00
2018-08-11T22:14:16.324Z,7.53
2018-08-11T22:16:52.470Z,7.63
2018-08-11T22:19:27.526Z,6.63
2018-08-11T22:22:03.054Z,7.00
2018-08-11T22:24:38.188Z,5.90
2018-08-11T22:27:13.372Z,5.70
2018-08-11T22:29:48.572Z,6.30
2018-08-11T22:32:24.212Z,5.90
2018-08-11T22:34:59.930Z,7.00
2018-08-11T22:37:34.967Z,7.50
2018-08-11T22:40:10.234Z,6.80
2018-08-11T22:42:45.850Z,6.23
2018-08-11T22:45:21.179Z,6.83
2018-08-11T22:47:57.016Z,6.70
2018-08-11T22:50:32.272Z,6.30
2018-08-11T22:53:07.208Z,7.33
2018-08-11T22:55:42.163Z,6.57
2018-08-11T22:58:17.408Z,6.63
2018-08-11T23:00:53.496Z,7.13
2018-08-11T23:03:28.774Z,7.07
2018-08-11T23:06:03.660Z,6.80
2018-08-11T23:08:38.673Z,6.93
2018-08-11T23:11:19.412Z,6.87
2018-08-11T23:13:54.563Z,7.60
2018-08-11T23:16:29.696Z,7.30
2018-08-11T23:19:04.717Z,7.10
2018-08-11T23:21:40.277Z,7.50
2018-08-11T23:24:15.836Z,6.90
2018-08-11T23:26:50.839Z,7.30
2018-08-11T23:29:25.742Z,6.30
2018-08-11T23:32:01.213Z,7.20
2018-08-11T23:34:37.144Z,6.37
2018-08-11T23:37:11.909Z,6.53
2018-08-11T23:39:47.018Z,5.93
2018-08-11T23:42:22.146Z,6.17
2018-08-11T23:44:57.434Z,6.17
2018-08-11T23:47:32.638Z,6.13
2018-08-11T23:50:08.853Z,6.13
2018-08-11T23:52:44.757Z,6.03
2018-08-11T23:55:19.979Z,6.03
2018-08-11T23:57:54.963Z,6.10
